Ocontofalls, Wisconsin
Current Conditions -  °F | °C
As of 7:15 AM on Thursday 23 Oct 2014 (Local Time) from KOCQ Reporting Station
Overcast Overcast  
Wind Chill: 29°   Ceiling: 200
Heat Index: 29°   Visibility: 0.25mi
Dew Point: 29°   Wind: 0mph
Humidity: 99%   Direction: NA
Pressure: 30.16"   Gusts: NA
Location:  44.8816°N, 88.1735°W
Report Text: KOCQ 231215Z AUTO 00000KT 1/4SM VV002 M01/M02 A3016 RMK AO1 T10151016
Loading
Personal Weather Stations






























Interactive Weather Map
Tropical Storm Tracking
New forecast layout! Learn more

10-Day Weather Forecast

Advertisements
Track Severe Weather on mobile